sensor_id;sensor_type;location;lat;lon;timestamp;temperature;humidity
21149;DHT22;10732;51.472;6.466;2024-01-25T00:01:26;7.90;99.90
21149;DHT22;10732;51.472;6.466;2024-01-25T00:03:52;7.80;99.90
21149;DHT22;10732;51.472;6.466;2024-01-25T00:06:17;7.80;99.90
21149;DHT22;10732;51.472;6.466;2024-01-25T00:08:43;7.70;99.90
21149;DHT22;10732;51.472;6.466;2024-01-25T00:11:08;7.70;99.90
21149;DHT22;10732;51.472;6.466;2024-01-25T00:13:35;7.70;99.90
21149;DHT22;10732;51.472;6.466;2024-01-25T00:16:01;7.70;99.90
21149;DHT22;10732;51.472;6.466;2024-01-25T00:18:26;7.70;99.90
21149;DHT22;10732;51.472;6.466;2024-01-25T00:20:54;7.60;99.90
21149;DHT22;10732;51.472;6.466;2024-01-25T00:23:19;7.60;99.90
21149;DHT22;10732;51.472;6.466;2024-01-25T00:25:45;7.50;99.90
21149;DHT22;10732;51.472;6.466;2024-01-25T00:28:11;7.40;99.90
21149;DHT22;10732;51.472;6.466;2024-01-25T00:30:38;7.40;99.90
21149;DHT22;10732;51.472;6.466;2024-01-25T00:33:04;7.40;99.90
21149;DHT22;10732;51.472;6.466;2024-01-25T00:35:30;7.30;99.90
21149;DHT22;10732;51.472;6.466;2024-01-25T00:37:55;7.30;99.90
21149;DHT22;10732;51.472;6.466;2024-01-25T00:40:21;7.30;99.90
21149;DHT22;10732;51.472;6.466;2024-01-25T00:42:47;7.30;99.90
21149;DHT22;10732;51.472;6.466;2024-01-25T00:45:20;7.30;99.90
21149;DHT22;10732;51.472;6.466;2024-01-25T00:47:46;7.30;99.90
21149;DHT22;10732;51.472;6.466;2024-01-25T00:50:12;7.10;99.90
21149;DHT22;10732;51.472;6.466;2024-01-25T00:52:38;7.10;99.90
21149;DHT22;10732;51.472;6.466;2024-01-25T00:55:04;7.10;99.90
21149;DHT22;10732;51.472;6.466;2024-01-25T00:57:30;6.90;99.90
21149;DHT22;10732;51.472;6.466;2024-01-25T00:59:57;6.80;99.90
21149;DHT22;10732;51.472;6.466;2024-01-25T01:02:23;6.80;99.90
21149;DHT22;10732;51.472;6.466;2024-01-25T01:04:49;6.70;99.90
21149;DHT22;10732;51.472;6.466;2024-01-25T01:07:15;6.70;99.90
21149;DHT22;10732;51.472;6.466;2024-01-25T01:09:41;6.60;99.90
21149;DHT22;10732;51.472;6.466;2024-01-25T01:12:07;6.60;99.90
21149;DHT22;10732;51.472;6.466;2024-01-25T01:14:33;6.60;99.90
21149;DHT22;10732;51.472;6.466;2024-01-25T01:16:58;6.60;99.90
21149;DHT22;10732;51.472;6.466;2024-01-25T01:19:24;6.60;99.90
21149;DHT22;10732;51.472;6.466;2024-01-25T01:21:49;6.60;99.90
21149;DHT22;10732;51.472;6.466;2024-01-25T01:24:15;6.50;99.90
21149;DHT22;10732;51.472;6.466;2024-01-25T01:26:40;6.50;99.90
21149;DHT22;10732;51.472;6.466;2024-01-25T01:29:07;6.40;99.90
21149;DHT22;10732;51.472;6.466;2024-01-25T01:31:33;6.30;99.90
21149;DHT22;10732;51.472;6.466;2024-01-25T01:33:59;6.20;99.90
21149;DHT22;10732;51.472;6.466;2024-01-25T01:36:26;6.10;99.90
21149;DHT22;10732;51.472;6.466;2024-01-25T01:38:51;6.10;99.90
21149;DHT22;10732;51.472;6.466;2024-01-25T01:41:17;6.00;99.90
21149;DHT22;10732;51.472;6.466;2024-01-25T01:43:42;6.00;99.90
21149;DHT22;10732;51.472;6.466;2024-01-25T01:46:15;5.90;99.90
21149;DHT22;10732;51.472;6.466;2024-01-25T01:48:41;5.90;99.90
21149;DHT22;10732;51.472;6.466;2024-01-25T01:51:08;5.90;99.90
21149;DHT22;10732;51.472;6.466;2024-01-25T01:53:35;5.80;99.90
21149;DHT22;10732;51.472;6.466;2024-01-25T01:56:01;5.90;99.90
21149;DHT22;10732;51.472;6.466;2024-01-25T01:58:27;5.90;99.90
21149;DHT22;10732;51.472;6.466;2024-01-25T02:00:54;5.90;99.90
21149;DHT22;10732;51.472;6.466;2024-01-25T02:03:20;5.90;99.90
21149;DHT22;10732;51.472;6.466;2024-01-25T02:05:46;5.90;99.90
21149;DHT22;10732;51.472;6.466;2024-01-25T02:08:12;5.90;99.90
21149;DHT22;10732;51.472;6.466;2024-01-25T02:10:38;5.80;99.90
21149;DHT22;10732;51.472;6.466;2024-01-25T02:13:03;5.80;99.90
21149;DHT22;10732;51.472;6.466;2024-01-25T02:15:29;5.80;99.90
21149;DHT22;10732;51.472;6.466;2024-01-25T02:17:55;5.80;99.90
21149;DHT22;10732;51.472;6.466;2024-01-25T02:20:21;5.70;99.90
21149;DHT22;10732;51.472;6.466;2024-01-25T02:22:47;5.80;99.90
21149;DHT22;10732;51.472;6.466;2024-01-25T02:25:12;5.80;99.90
21149;DHT22;10732;51.472;6.466;2024-01-25T02:27:38;5.80;99.90
21149;DHT22;10732;51.472;6.466;2024-01-25T02:30:05;5.80;99.90
21149;DHT22;10732;51.472;6.466;2024-01-25T02:32:32;5.90;99.90
21149;DHT22;10732;51.472;6.466;2024-01-25T02:34:57;5.80;99.90
21149;DHT22;10732;51.472;6.466;2024-01-25T02:37:23;5.80;99.90
21149;DHT22;10732;51.472;6.466;2024-01-25T02:39:48;5.80;99.90
21149;DHT22;10732;51.472;6.466;2024-01-25T02:42:14;5.70;99.90
21149;DHT22;10732;51.472;6.466;2024-01-25T02:44:42;5.70;99.90
21149;DHT22;10732;51.472;6.466;2024-01-25T02:47:07;5.80;99.90
21149;DHT22;10732;51.472;6.466;2024-01-25T02:49:33;5.80;99.90
21149;DHT22;10732;51.472;6.466;2024-01-25T02:51:58;5.80;99.90
21149;DHT22;10732;51.472;6.466;2024-01-25T02:54:24;5.80;99.90
21149;DHT22;10732;51.472;6.466;2024-01-25T02:56:49;5.80;99.90
21149;DHT22;10732;51.472;6.466;2024-01-25T02:59:15;5.70;99.90
21149;DHT22;10732;51.472;6.466;2024-01-25T03:01:41;5.60;99.90
21149;DHT22;10732;51.472;6.466;2024-01-25T03:04:07;5.60;99.90
21149;DHT22;10732;51.472;6.466;2024-01-25T03:06:32;5.60;99.90
21149;DHT22;10732;51.472;6.466;2024-01-25T03:08:58;5.60;99.90
21149;DHT22;10732;51.472;6.466;2024-01-25T03:11:24;5.60;99.90
21149;DHT22;10732;51.472;6.466;2024-01-25T03:13:49;5.50;99.90
21149;DHT22;10732;51.472;6.466;2024-01-25T03:16:15;5.40;99.90
21149;DHT22;10732;51.472;6.466;2024-01-25T03:18:40;5.50;99.90
21149;DHT22;10732;51.472;6.466;2024-01-25T03:21:06;5.40;99.90
21149;DHT22;10732;51.472;6.466;2024-01-25T03:23:32;5.40;99.90
21149;DHT22;10732;51.472;6.466;2024-01-25T03:25:57;5.40;99.90
21149;DHT22;10732;51.472;6.466;2024-01-25T03:28:23;5.30;99.90
21149;DHT22;10732;51.472;6.466;2024-01-25T03:30:48;5.20;99.90
21149;DHT22;10732;51.472;6.466;2024-01-25T03:33:14;5.10;99.90
21149;DHT22;10732;51.472;6.466;2024-01-25T03:35:39;5.10;99.90
21149;DHT22;10732;51.472;6.466;2024-01-25T03:38:05;5.00;99.90
21149;DHT22;10732;51.472;6.466;2024-01-25T03:40:31;4.90;99.90
21149;DHT22;10732;51.472;6.466;2024-01-25T03:42:56;4.90;99.90
21149;DHT22;10732;51.472;6.466;2024-01-25T03:45:22;4.90;99.90
21149;DHT22;10732;51.472;6.466;2024-01-25T03:47:47;4.90;99.90
21149;DHT22;10732;51.472;6.466;2024-01-25T03:50:13;4.80;99.90
21149;DHT22;10732;51.472;6.466;2024-01-25T03:52:38;4.60;99.90
21149;DHT22;10732;51.472;6.466;2024-01-25T03:55:04;4.50;99.90
21149;DHT22;10732;51.472;6.466;2024-01-25T03:57:30;4.40;99.90
21149;DHT22;10732;51.472;6.466;2024-01-25T03:59:56;4.30;99.90
21149;DHT22;10732;51.472;6.466;2024-01-25T04:02:21;4.20;99.90
21149;DHT22;10732;51.472;6.466;2024-01-25T04:04:47;4.20;99.90
21149;DHT22;10732;51.472;6.466;2024-01-25T04:07:12;4.20;99.90
21149;DHT22;10732;51.472;6.466;2024-01-25T04:09:38;4.30;99.90
21149;DHT22;10732;51.472;6.466;2024-01-25T04:12:05;4.50;99.90
21149;DHT22;10732;51.472;6.466;2024-01-25T04:14:31;4.50;99.90
21149;DHT22;10732;51.472;6.466;2024-01-25T04:16:56;4.50;99.90
21149;DHT22;10732;51.472;6.466;2024-01-25T04:19:22;4.50;99.90
21149;DHT22;10732;51.472;6.466;2024-01-25T04:21:47;4.50;99.90
21149;DHT22;10732;51.472;6.466;2024-01-25T04:24:13;4.50;99.90
21149;DHT22;10732;51.472;6.466;2024-01-25T04:26:38;4.60;99.90
21149;DHT22;10732;51.472;6.466;2024-01-25T04:29:04;4.60;99.90
21149;DHT22;10732;51.472;6.466;2024-01-25T04:31:31;4.40;99.90
21149;DHT22;10732;51.472;6.466;2024-01-25T04:33:57;4.40;99.90
21149;DHT22;10732;51.472;6.466;2024-01-25T04:36:22;4.20;99.90
21149;DHT22;10732;51.472;6.466;2024-01-25T04:38:48;4.10;99.90
21149;DHT22;10732;51.472;6.466;2024-01-25T04:41:13;4.00;99.90
21149;DHT22;10732;51.472;6.466;2024-01-25T04:43:39;3.90;99.90
21149;DHT22;10732;51.472;6.466;2024-01-25T04:46:04;3.80;99.90
21149;DHT22;10732;51.472;6.466;2024-01-25T04:48:30;3.80;99.90
21149;DHT22;10732;51.472;6.466;2024-01-25T04:50:57;3.70;99.90
21149;DHT22;10732;51.472;6.466;2024-01-25T04:53:24;3.70;99.90
21149;DHT22;10732;51.472;6.466;2024-01-25T04:55:49;3.60;99.90
21149;DHT22;10732;51.472;6.466;2024-01-25T04:58:15;3.50;99.90
21149;DHT22;10732;51.472;6.466;2024-01-25T05:00:40;3.40;99.90
21149;DHT22;10732;51.472;6.466;2024-01-25T05:03:06;3.30;99.90
21149;DHT22;10732;51.472;6.466;2024-01-25T05:05:31;3.30;99.90
21149;DHT22;10732;51.472;6.466;2024-01-25T05:07:57;3.20;99.90
21149;DHT22;10732;51.472;6.466;2024-01-25T05:10:22;3.10;99.90
21149;DHT22;10732;51.472;6.466;2024-01-25T05:12:48;3.20;99.90
21149;DHT22;10732;51.472;6.466;2024-01-25T05:15:14;3.20;99.90
21149;DHT22;10732;51.472;6.466;2024-01-25T05:17:40;3.10;99.90
21149;DHT22;10732;51.472;6.466;2024-01-25T05:20:07;3.00;99.90
21149;DHT22;10732;51.472;6.466;2024-01-25T05:22:33;2.90;99.90
21149;DHT22;10732;51.472;6.466;2024-01-25T05:25:05;2.80;99.90
21149;DHT22;10732;51.472;6.466;2024-01-25T05:27:31;2.70;99.90
21149;DHT22;10732;51.472;6.466;2024-01-25T05:29:57;2.60;99.90
21149;DHT22;10732;51.472;6.466;2024-01-25T05:32:22;2.70;99.90
21149;DHT22;10732;51.472;6.466;2024-01-25T05:34:48;2.80;99.90
21149;DHT22;10732;51.472;6.466;2024-01-25T05:37:13;3.10;99.90
21149;DHT22;10732;51.472;6.466;2024-01-25T05:39:39;3.10;99.90
21149;DHT22;10732;51.472;6.466;2024-01-25T05:42:04;3.10;99.90
21149;DHT22;10732;51.472;6.466;2024-01-25T05:44:30;2.90;99.90
21149;DHT22;10732;51.472;6.466;2024-01-25T05:46:55;2.90;99.90
21149;DHT22;10732;51.472;6.466;2024-01-25T05:49:21;2.80;99.90
21149;DHT22;10732;51.472;6.466;2024-01-25T05:51:46;2.70;99.90
21149;DHT22;10732;51.472;6.466;2024-01-25T05:54:12;2.60;99.90
21149;DHT22;10732;51.472;6.466;2024-01-25T05:56:38;2.50;99.90
21149;DHT22;10732;51.472;6.466;2024-01-25T05:59:03;2.50;99.90
21149;DHT22;10732;51.472;6.466;2024-01-25T06:01:29;2.50;99.90
21149;DHT22;10732;51.472;6.466;2024-01-25T06:03:55;2.50;99.90
21149;DHT22;10732;51.472;6.466;2024-01-25T06:06:20;2.40;99.90
21149;DHT22;10732;51.472;6.466;2024-01-25T06:08:46;2.40;99.90
21149;DHT22;10732;51.472;6.466;2024-01-25T06:11:11;2.30;99.90
21149;DHT22;10732;51.472;6.466;2024-01-25T06:13:37;2.20;99.90
21149;DHT22;10732;51.472;6.466;2024-01-25T06:16:02;2.20;99.90
21149;DHT22;10732;51.472;6.466;2024-01-25T06:18:28;2.20;99.90
21149;DHT22;10732;51.472;6.466;2024-01-25T06:20:53;2.20;99.90
21149;DHT22;10732;51.472;6.466;2024-01-25T06:23:19;2.20;99.90
21149;DHT22;10732;51.472;6.466;2024-01-25T06:25:44;2.30;99.90
21149;DHT22;10732;51.472;6.466;2024-01-25T06:28:10;2.20;99.90
21149;DHT22;10732;51.472;6.466;2024-01-25T06:30:35;2.20;99.90
21149;DHT22;10732;51.472;6.466;2024-01-25T06:33:01;2.20;99.90
21149;DHT22;10732;51.472;6.466;2024-01-25T06:35:27;2.20;99.90
21149;DHT22;10732;51.472;6.466;2024-01-25T06:37:52;2.20;99.90
21149;DHT22;10732;51.472;6.466;2024-01-25T06:40:18;2.20;99.90
21149;DHT22;10732;51.472;6.466;2024-01-25T06:42:43;2.30;99.90
21149;DHT22;10732;51.472;6.466;2024-01-25T06:45:10;2.30;99.90
21149;DHT22;10732;51.472;6.466;2024-01-25T06:47:35;2.30;99.90
21149;DHT22;10732;51.472;6.466;2024-01-25T06:50:01;2.40;99.90
21149;DHT22;10732;51.472;6.466;2024-01-25T06:52:27;2.50;99.90
21149;DHT22;10732;51.472;6.466;2024-01-25T06:54:52;2.50;99.90
21149;DHT22;10732;51.472;6.466;2024-01-25T06:57:18;2.50;99.90
21149;DHT22;10732;51.472;6.466;2024-01-25T06:59:43;2.50;99.90
21149;DHT22;10732;51.472;6.466;2024-01-25T07:02:09;2.40;99.90
21149;DHT22;10732;51.472;6.466;2024-01-25T07:04:34;2.40;99.90
21149;DHT22;10732;51.472;6.466;2024-01-25T07:07:00;2.40;99.90
21149;DHT22;10732;51.472;6.466;2024-01-25T07:09:26;2.30;99.90
21149;DHT22;10732;51.472;6.466;2024-01-25T07:11:51;2.30;99.90
21149;DHT22;10732;51.472;6.466;2024-01-25T07:14:17;2.30;99.90
21149;DHT22;10732;51.472;6.466;2024-01-25T07:16:42;2.40;99.90
21149;DHT22;10732;51.472;6.466;2024-01-25T07:19:08;2.50;99.90
21149;DHT22;10732;51.472;6.466;2024-01-25T07:21:34;2.50;99.90
21149;DHT22;10732;51.472;6.466;2024-01-25T07:24:00;2.50;99.90
21149;DHT22;10732;51.472;6.466;2024-01-25T07:26:26;2.50;99.90
21149;DHT22;10732;51.472;6.466;2024-01-25T07:28:52;2.60;99.90
21149;DHT22;10732;51.472;6.466;2024-01-25T07:31:26;2.60;99.90
21149;DHT22;10732;51.472;6.466;2024-01-25T07:33:52;2.70;99.90
21149;DHT22;10732;51.472;6.466;2024-01-25T07:36:18;2.70;99.90
21149;DHT22;10732;51.472;6.466;2024-01-25T07:38:44;2.70;99.90
21149;DHT22;10732;51.472;6.466;2024-01-25T07:41:15;2.70;99.90
21149;DHT22;10732;51.472;6.466;2024-01-25T07:43:41;2.70;99.90
21149;DHT22;10732;51.472;6.466;2024-01-25T07:46:06;2.70;99.90
21149;DHT22;10732;51.472;6.466;2024-01-25T07:48:32;2.70;99.90
21149;DHT22;10732;51.472;6.466;2024-01-25T07:50:58;2.80;99.90
21149;DHT22;10732;51.472;6.466;2024-01-25T07:53:24;2.90;99.90
21149;DHT22;10732;51.472;6.466;2024-01-25T07:55:49;3.00;99.90
21149;DHT22;10732;51.472;6.466;2024-01-25T07:58:15;3.20;99.90
21149;DHT22;10732;51.472;6.466;2024-01-25T08:00:41;3.20;99.90
21149;DHT22;10732;51.472;6.466;2024-01-25T08:03:07;3.30;99.90
21149;DHT22;10732;51.472;6.466;2024-01-25T08:05:33;3.40;99.90
21149;DHT22;10732;51.472;6.466;2024-01-25T08:07:59;3.40;99.90
21149;DHT22;10732;51.472;6.466;2024-01-25T08:10:24;3.50;99.90
21149;DHT22;10732;51.472;6.466;2024-01-25T08:12:50;3.50;99.90
21149;DHT22;10732;51.472;6.466;2024-01-25T08:15:15;3.60;99.90
21149;DHT22;10732;51.472;6.466;2024-01-25T08:17:41;3.60;99.90
21149;DHT22;10732;51.472;6.466;2024-01-25T08:20:07;3.80;99.90
21149;DHT22;10732;51.472;6.466;2024-01-25T08:22:33;4.00;99.90
21149;DHT22;10732;51.472;6.466;2024-01-25T08:24:59;4.10;99.90
21149;DHT22;10732;51.472;6.466;2024-01-25T08:27:25;4.20;99.90
21149;DHT22;10732;51.472;6.466;2024-01-25T08:29:50;4.40;99.90
21149;DHT22;10732;51.472;6.466;2024-01-25T08:32:16;4.50;99.90
21149;DHT22;10732;51.472;6.466;2024-01-25T08:34:41;4.60;99.90
21149;DHT22;10732;51.472;6.466;2024-01-25T08:37:07;4.70;99.90
21149;DHT22;10732;51.472;6.466;2024-01-25T08:39:33;4.80;99.90
21149;DHT22;10732;51.472;6.466;2024-01-25T08:41:58;4.90;99.90
21149;DHT22;10732;51.472;6.466;2024-01-25T08:44:27;5.00;99.90
21149;DHT22;10732;51.472;6.466;2024-01-25T08:46:52;5.10;99.90
21149;DHT22;10732;51.472;6.466;2024-01-25T08:49:18;5.10;99.90
21149;DHT22;10732;51.472;6.466;2024-01-25T08:51:43;5.10;99.90
21149;DHT22;10732;51.472;6.466;2024-01-25T08:54:09;5.20;99.90
21149;DHT22;10732;51.472;6.466;2024-01-25T08:56:34;5.20;99.90
21149;DHT22;10732;51.472;6.466;2024-01-25T08:59:00;5.30;99.90
21149;DHT22;10732;51.472;6.466;2024-01-25T09:01:26;5.30;99.90
21149;DHT22;10732;51.472;6.466;2024-01-25T09:03:52;5.30;99.90
21149;DHT22;10732;51.472;6.466;2024-01-25T09:06:17;5.40;99.90
21149;DHT22;10732;51.472;6.466;2024-01-25T09:08:43;5.50;99.90
21149;DHT22;10732;51.472;6.466;2024-01-25T09:11:08;5.60;99.90
21149;DHT22;10732;51.472;6.466;2024-01-25T09:13:34;5.80;99.90
21149;DHT22;10732;51.472;6.466;2024-01-25T09:15:59;5.90;99.90
21149;DHT22;10732;51.472;6.466;2024-01-25T09:18:25;6.10;99.90
21149;DHT22;10732;51.472;6.466;2024-01-25T09:20:50;6.30;99.90
21149;DHT22;10732;51.472;6.466;2024-01-25T09:23:16;6.40;99.90
21149;DHT22;10732;51.472;6.466;2024-01-25T09:25:43;6.70;99.90
21149;DHT22;10732;51.472;6.466;2024-01-25T09:28:08;7.00;99.90
21149;DHT22;10732;51.472;6.466;2024-01-25T09:30:38;6.90;99.90
21149;DHT22;10732;51.472;6.466;2024-01-25T09:33:03;6.60;99.90
21149;DHT22;10732;51.472;6.466;2024-01-25T09:35:29;6.90;99.90
21149;DHT22;10732;51.472;6.466;2024-01-25T09:37:55;7.20;99.90
21149;DHT22;10732;51.472;6.466;2024-01-25T09:40:20;7.30;99.90
21149;DHT22;10732;51.472;6.466;2024-01-25T09:42:47;7.40;99.90
21149;DHT22;10732;51.472;6.466;2024-01-25T09:45:17;7.70;99.90
21149;DHT22;10732;51.472;6.466;2024-01-25T09:47:46;8.00;99.90
21149;DHT22;10732;51.472;6.466;2024-01-25T09:50:13;8.10;99.90
21149;DHT22;10732;51.472;6.466;2024-01-25T09:52:39;8.10;99.90
21149;DHT22;10732;51.472;6.466;2024-01-25T09:55:07;8.00;99.90
21149;DHT22;10732;51.472;6.466;2024-01-25T09:57:35;8.00;99.90
21149;DHT22;10732;51.472;6.466;2024-01-25T10:00:04;8.30;99.90
21149;DHT22;10732;51.472;6.466;2024-01-25T10:02:31;8.60;99.90
21149;DHT22;10732;51.472;6.466;2024-01-25T10:04:56;9.10;99.90
21149;DHT22;10732;51.472;6.466;2024-01-25T10:07:41;9.40;99.90
21149;DHT22;10732;51.472;6.466;2024-01-25T10:10:08;9.50;99.90
21149;DHT22;10732;51.472;6.466;2024-01-25T10:12:34;9.40;99.90
21149;DHT22;10732;51.472;6.466;2024-01-25T10:15:00;9.50;99.90
21149;DHT22;10732;51.472;6.466;2024-01-25T10:17:26;9.20;99.90
21149;DHT22;10732;51.472;6.466;2024-01-25T10:19:53;8.80;99.90
21149;DHT22;10732;51.472;6.466;2024-01-25T10:22:19;8.00;99.90
21149;DHT22;10732;51.472;6.466;2024-01-25T10:24:44;8.10;99.90
21149;DHT22;10732;51.472;6.466;2024-01-25T10:27:10;8.30;99.90
21149;DHT22;10732;51.472;6.466;2024-01-25T10:29:36;8.80;99.90
21149;DHT22;10732;51.472;6.466;2024-01-25T10:32:03;8.80;99.90
21149;DHT22;10732;51.472;6.466;2024-01-25T10:34:29;8.60;99.90
21149;DHT22;10732;51.472;6.466;2024-01-25T10:36:55;8.80;99.90
21149;DHT22;10732;51.472;6.466;2024-01-25T10:39:21;9.30;99.90
21149;DHT22;10732;51.472;6.466;2024-01-25T10:41:47;9.50;99.90
21149;DHT22;10732;51.472;6.466;2024-01-25T10:44:19;9.70;99.90
21149;DHT22;10732;51.472;6.466;2024-01-25T10:46:48;9.10;99.90
21149;DHT22;10732;51.472;6.466;2024-01-25T10:49:14;9.20;99.90
21149;DHT22;10732;51.472;6.466;2024-01-25T10:51:41;9.30;99.90
21149;DHT22;10732;51.472;6.466;2024-01-25T10:54:11;9.20;99.90
21149;DHT22;10732;51.472;6.466;2024-01-25T10:56:38;9.30;99.90
21149;DHT22;10732;51.472;6.466;2024-01-25T10:59:03;9.50;99.90
21149;DHT22;10732;51.472;6.466;2024-01-25T11:01:29;9.80;99.90
21149;DHT22;10732;51.472;6.466;2024-01-25T11:03:55;9.90;99.90
21149;DHT22;10732;51.472;6.466;2024-01-25T11:06:21;9.80;99.90
21149;DHT22;10732;51.472;6.466;2024-01-25T11:08:48;10.20;99.90
21149;DHT22;10732;51.472;6.466;2024-01-25T11:11:14;9.70;99.90
21149;DHT22;10732;51.472;6.466;2024-01-25T11:13:42;9.30;99.90
21149;DHT22;10732;51.472;6.466;2024-01-25T11:16:18;9.30;99.90
21149;DHT22;10732;51.472;6.466;2024-01-25T11:18:53;9.10;99.90
21149;DHT22;10732;51.472;6.466;2024-01-25T11:21:37;9.10;99.90
21149;DHT22;10732;51.472;6.466;2024-01-25T11:24:03;9.20;99.90
21149;DHT22;10732;51.472;6.466;2024-01-25T11:26:32;9.10;99.90
21149;DHT22;10732;51.472;6.466;2024-01-25T11:28:58;8.80;99.90
21149;DHT22;10732;51.472;6.466;2024-01-25T11:31:26;8.90;99.90
21149;DHT22;10732;51.472;6.466;2024-01-25T11:33:56;8.50;99.90
21149;DHT22;10732;51.472;6.466;2024-01-25T11:36:22;8.10;99.90
21149;DHT22;10732;51.472;6.466;2024-01-25T11:38:48;8.20;99.90
21149;DHT22;10732;51.472;6.466;2024-01-25T11:41:14;8.20;99.90
21149;DHT22;10732;51.472;6.466;2024-01-25T11:43:40;8.20;99.90
21149;DHT22;10732;51.472;6.466;2024-01-25T11:46:06;8.50;99.90
21149;DHT22;10732;51.472;6.466;2024-01-25T11:48:31;8.50;99.90
21149;DHT22;10732;51.472;6.466;2024-01-25T11:50:59;8.50;99.90
21149;DHT22;10732;51.472;6.466;2024-01-25T11:53:25;8.60;99.90
21149;DHT22;10732;51.472;6.466;2024-01-25T11:55:51;8.60;99.90
21149;DHT22;10732;51.472;6.466;2024-01-25T11:58:17;8.50;99.90
21149;DHT22;10732;51.472;6.466;2024-01-25T12:00:43;8.40;99.90
21149;DHT22;10732;51.472;6.466;2024-01-25T12:03:09;8.50;99.90
21149;DHT22;10732;51.472;6.466;2024-01-25T12:05:35;8.20;99.90
21149;DHT22;10732;51.472;6.466;2024-01-25T12:08:01;8.30;99.90
21149;DHT22;10732;51.472;6.466;2024-01-25T12:10:27;8.20;99.90
21149;DHT22;10732;51.472;6.466;2024-01-25T12:12:52;8.00;99.90
21149;DHT22;10732;51.472;6.466;2024-01-25T12:15:18;7.80;99.90
21149;DHT22;10732;51.472;6.466;2024-01-25T12:17:44;7.80;99.90
21149;DHT22;10732;51.472;6.466;2024-01-25T12:20:11;7.90;99.90
21149;DHT22;10732;51.472;6.466;2024-01-25T12:22:37;7.90;99.90
21149;DHT22;10732;51.472;6.466;2024-01-25T12:25:06;7.80;99.90
21149;DHT22;10732;51.472;6.466;2024-01-25T12:27:33;7.70;99.90
21149;DHT22;10732;51.472;6.466;2024-01-25T12:29:58;7.90;99.90
21149;DHT22;10732;51.472;6.466;2024-01-25T12:32:24;7.90;99.90
21149;DHT22;10732;51.472;6.466;2024-01-25T12:37:19;8.00;99.90
21149;DHT22;10732;51.472;6.466;2024-01-25T12:39:45;8.20;99.90
21149;DHT22;10732;51.472;6.466;2024-01-25T12:42:10;8.30;99.90
21149;DHT22;10732;51.472;6.466;2024-01-25T12:44:36;8.30;99.90
21149;DHT22;10732;51.472;6.466;2024-01-25T12:47:02;8.10;99.90
21149;DHT22;10732;51.472;6.466;2024-01-25T12:49:31;8.10;99.90
21149;DHT22;10732;51.472;6.466;2024-01-25T12:51:57;8.20;99.90
21149;DHT22;10732;51.472;6.466;2024-01-25T12:54:23;8.20;99.90
21149;DHT22;10732;51.472;6.466;2024-01-25T12:56:49;8.10;99.90
21149;DHT22;10732;51.472;6.466;2024-01-25T12:59:14;7.90;99.90
21149;DHT22;10732;51.472;6.466;2024-01-25T13:01:40;7.90;99.90
21149;DHT22;10732;51.472;6.466;2024-01-25T13:04:05;7.90;99.90
21149;DHT22;10732;51.472;6.466;2024-01-25T13:06:31;7.90;99.90
21149;DHT22;10732;51.472;6.466;2024-01-25T13:08:56;7.80;99.90
21149;DHT22;10732;51.472;6.466;2024-01-25T13:11:22;7.80;99.90
21149;DHT22;10732;51.472;6.466;2024-01-25T13:13:47;7.90;99.90
21149;DHT22;10732;51.472;6.466;2024-01-25T13:16:13;7.80;99.90
21149;DHT22;10732;51.472;6.466;2024-01-25T13:18:38;7.80;99.90
21149;DHT22;10732;51.472;6.466;2024-01-25T13:21:04;7.70;99.90
21149;DHT22;10732;51.472;6.466;2024-01-25T13:23:29;7.80;99.90
21149;DHT22;10732;51.472;6.466;2024-01-25T13:25:55;7.80;99.90
21149;DHT22;10732;51.472;6.466;2024-01-25T13:28:21;8.00;99.90
21149;DHT22;10732;51.472;6.466;2024-01-25T13:30:46;8.00;99.90
21149;DHT22;10732;51.472;6.466;2024-01-25T13:33:12;7.80;99.90
21149;DHT22;10732;51.472;6.466;2024-01-25T13:35:37;7.80;99.90
21149;DHT22;10732;51.472;6.466;2024-01-25T13:38:03;8.10;99.90
21149;DHT22;10732;51.472;6.466;2024-01-25T13:40:29;8.10;99.90
21149;DHT22;10732;51.472;6.466;2024-01-25T13:42:55;8.20;99.90
21149;DHT22;10732;51.472;6.466;2024-01-25T13:45:21;8.20;99.90
21149;DHT22;10732;51.472;6.466;2024-01-25T13:47:46;8.20;99.90
21149;DHT22;10732;51.472;6.466;2024-01-25T13:50:12;7.90;99.90
21149;DHT22;10732;51.472;6.466;2024-01-25T13:52:37;8.00;99.90
21149;DHT22;10732;51.472;6.466;2024-01-25T13:55:03;7.90;99.90
21149;DHT22;10732;51.472;6.466;2024-01-25T13:57:29;7.90;99.90
21149;DHT22;10732;51.472;6.466;2024-01-25T13:59:54;8.00;99.90
21149;DHT22;10732;51.472;6.466;2024-01-25T14:02:20;8.00;99.90
21149;DHT22;10732;51.472;6.466;2024-01-25T14:04:46;7.90;99.90
21149;DHT22;10732;51.472;6.466;2024-01-25T14:07:13;7.90;99.90
21149;DHT22;10732;51.472;6.466;2024-01-25T14:09:39;7.90;99.90
21149;DHT22;10732;51.472;6.466;2024-01-25T14:12:06;7.90;99.90
21149;DHT22;10732;51.472;6.466;2024-01-25T14:14:31;8.00;99.90
21149;DHT22;10732;51.472;6.466;2024-01-25T14:16:57;8.00;99.90
21149;DHT22;10732;51.472;6.466;2024-01-25T14:19:22;8.10;99.90
21149;DHT22;10732;51.472;6.466;2024-01-25T14:21:48;8.20;99.90
21149;DHT22;10732;51.472;6.466;2024-01-25T14:24:15;8.20;99.90
21149;DHT22;10732;51.472;6.466;2024-01-25T14:26:41;8.20;99.90
21149;DHT22;10732;51.472;6.466;2024-01-25T14:29:06;8.10;99.90
21149;DHT22;10732;51.472;6.466;2024-01-25T14:31:32;8.10;99.90
21149;DHT22;10732;51.472;6.466;2024-01-25T14:33:58;8.10;99.90
21149;DHT22;10732;51.472;6.466;2024-01-25T14:36:23;8.10;99.90
21149;DHT22;10732;51.472;6.466;2024-01-25T14:38:49;8.20;99.90
21149;DHT22;10732;51.472;6.466;2024-01-25T14:41:14;8.20;99.90
21149;DHT22;10732;51.472;6.466;2024-01-25T14:43:40;8.10;99.90
21149;DHT22;10732;51.472;6.466;2024-01-25T14:46:07;8.00;99.90
21149;DHT22;10732;51.472;6.466;2024-01-25T14:48:33;8.10;99.90
21149;DHT22;10732;51.472;6.466;2024-01-25T14:50:58;8.10;99.90
21149;DHT22;10732;51.472;6.466;2024-01-25T14:53:24;8.10;99.90
21149;DHT22;10732;51.472;6.466;2024-01-25T14:55:50;8.20;99.90
21149;DHT22;10732;51.472;6.466;2024-01-25T14:58:15;8.20;99.90
21149;DHT22;10732;51.472;6.466;2024-01-25T15:00:48;8.10;99.90
21149;DHT22;10732;51.472;6.466;2024-01-25T15:03:13;8.10;99.90
21149;DHT22;10732;51.472;6.466;2024-01-25T15:05:39;8.20;99.90
21149;DHT22;10732;51.472;6.466;2024-01-25T15:08:04;8.20;99.90
21149;DHT22;10732;51.472;6.466;2024-01-25T15:10:30;8.20;99.90
21149;DHT22;10732;51.472;6.466;2024-01-25T15:12:56;8.30;99.90
21149;DHT22;10732;51.472;6.466;2024-01-25T15:15:24;8.30;99.90
21149;DHT22;10732;51.472;6.466;2024-01-25T15:17:53;8.20;99.90
21149;DHT22;10732;51.472;6.466;2024-01-25T15:20:19;8.20;99.90
21149;DHT22;10732;51.472;6.466;2024-01-25T15:22:44;8.30;99.90
21149;DHT22;10732;51.472;6.466;2024-01-25T15:25:10;8.30;99.90
21149;DHT22;10732;51.472;6.466;2024-01-25T15:27:35;8.20;99.90
21149;DHT22;10732;51.472;6.466;2024-01-25T15:30:01;8.20;99.90
21149;DHT22;10732;51.472;6.466;2024-01-25T15:32:27;8.20;99.90
21149;DHT22;10732;51.472;6.466;2024-01-25T15:34:52;8.20;99.90
21149;DHT22;10732;51.472;6.466;2024-01-25T15:37:18;8.20;99.90
21149;DHT22;10732;51.472;6.466;2024-01-25T15:39:43;8.20;99.90